createdAt,value
2018-02-06T00:02:08.048Z,13.30
2018-02-06T00:04:33.982Z,11.90
2018-02-06T00:07:03.581Z,13.63
2018-02-06T00:09:29.509Z,11.55
2018-02-06T00:11:58.995Z,12.40
2018-02-06T00:14:24.903Z,12.15
2018-02-06T00:16:52.304Z,12.63
2018-02-06T00:19:18.250Z,11.82
2018-02-06T00:21:47.308Z,11.70
2018-02-06T00:24:13.204Z,11.50
2018-02-06T00:26:39.123Z,13.33
2018-02-06T00:29:05.043Z,12.57
2018-02-06T00:31:30.967Z,11.83
2018-02-06T00:34:00.080Z,12.00
2018-02-06T00:36:26.004Z,11.48
2018-02-06T00:38:55.140Z,12.10
2018-02-06T00:41:21.088Z,12.73
2018-02-06T00:43:48.329Z,14.15
2018-02-06T00:46:14.331Z,14.68
2018-02-06T00:48:43.516Z,12.00
2018-02-06T00:51:09.422Z,12.35
2018-02-06T00:53:38.734Z,11.77
2018-02-06T00:56:04.669Z,10.80
2018-02-06T00:58:33.951Z,13.23
2018-02-06T01:00:59.876Z,12.30
2018-02-06T01:03:25.823Z,12.50
2018-02-06T01:05:51.728Z,14.70
2018-02-06T01:08:17.644Z,12.87
2018-02-06T01:10:44.043Z,12.80
2018-02-06T01:13:09.996Z,12.27
2018-02-06T01:15:40.101Z,13.62
2018-02-06T01:18:05.998Z,12.18
2018-02-06T01:20:35.155Z,13.33
2018-02-06T01:23:01.076Z,13.52
2018-02-06T01:25:30.258Z,14.20
2018-02-06T01:27:56.186Z,14.57
2018-02-06T01:30:23.226Z,13.37
2018-02-06T01:32:49.149Z,14.55
2018-02-06T01:35:18.314Z,12.83
2018-02-06T01:37:44.263Z,13.50
2018-02-06T01:40:10.168Z,13.67
2018-02-06T01:42:36.095Z,14.50
2018-02-06T01:45:02.024Z,13.80
2018-02-06T01:47:31.011Z,13.83
2018-02-06T01:50:04.210Z,14.20
2018-02-06T01:52:30.165Z,13.43
2018-02-06T01:54:56.067Z,12.33
2018-02-06T01:57:21.979Z,14.60
2018-02-06T01:59:47.914Z,14.37
2018-02-06T02:02:13.833Z,12.30
2018-02-06T02:04:39.762Z,13.30
2018-02-06T02:07:09.259Z,14.13
2018-02-06T02:09:35.182Z,13.35
2018-02-06T02:12:04.724Z,14.27
2018-02-06T02:14:30.635Z,13.80
2018-02-06T02:16:56.564Z,14.10
2018-02-06T02:19:22.524Z,14.07
2018-02-06T02:21:48.442Z,14.45
2018-02-06T02:24:14.615Z,13.50
2018-02-06T02:26:40.519Z,14.65
2018-02-06T02:29:09.212Z,14.03
2018-02-06T02:31:35.135Z,15.43
2018-02-06T02:34:04.013Z,14.53
2018-02-06T02:36:29.923Z,13.32
2018-02-06T02:38:58.976Z,12.10
2018-02-06T02:41:24.876Z,14.65
2018-02-06T04:41:32.006Z,18.37
2018-02-06T04:43:57.964Z,19.27
2018-02-06T04:46:23.879Z,20.65
2018-02-06T04:48:49.824Z,18.77
2018-02-06T04:51:15.737Z,19.07
2018-02-06T04:53:41.654Z,19.00
2018-02-06T04:56:11.295Z,18.70
2018-02-06T04:58:37.233Z,18.92
2018-02-06T05:01:07.231Z,19.87
2018-02-06T05:03:33.144Z,18.55
2018-02-06T05:06:00.376Z,19.80
2018-02-06T05:08:26.283Z,19.92
2018-02-06T05:10:55.529Z,20.00
2018-02-06T05:13:21.430Z,19.65
2018-02-06T05:15:50.576Z,20.63
2018-02-06T05:18:16.525Z,19.73
2018-02-06T05:20:42.426Z,18.80
2018-02-06T05:23:08.347Z,18.93
2018-02-06T05:25:34.262Z,19.60
2018-02-06T05:28:01.890Z,19.00
2018-02-06T05:30:27.836Z,20.48
2018-02-06T05:32:57.274Z,19.27
2018-02-06T05:35:23.214Z,20.05
2018-02-06T05:37:52.428Z,19.77
2018-02-06T05:40:18.322Z,19.17
2018-02-06T05:42:45.585Z,20.97
2018-02-06T05:45:11.495Z,19.60
2018-02-06T05:47:40.698Z,21.77
2018-02-06T05:50:06.666Z,20.60
2018-02-06T05:52:35.890Z,20.33
2018-02-06T05:55:01.787Z,19.58
2018-02-06T05:57:27.722Z,21.30
2018-02-06T05:59:53.634Z,20.93
2018-02-06T06:02:19.561Z,20.43
2018-02-06T06:04:47.206Z,18.90
2018-02-06T06:07:13.131Z,20.58
2018-02-06T06:09:42.490Z,21.03
2018-02-06T06:12:08.415Z,20.80
2018-02-06T06:14:35.841Z,18.00
2018-02-06T06:17:01.781Z,19.87
2018-02-06T06:19:30.930Z,18.77
2018-02-06T06:21:56.864Z,20.67
2018-02-06T06:24:26.332Z,19.63
2018-02-06T06:26:52.260Z,20.75
2018-02-06T06:29:21.398Z,20.10
2018-02-06T06:31:47.292Z,20.75
2018-02-06T06:34:13.267Z,19.00
2018-02-06T06:36:39.172Z,19.00
2018-02-06T06:39:05.122Z,19.67
2018-02-06T06:41:32.200Z,20.27
2018-02-06T06:43:58.095Z,19.50
2018-02-06T06:46:27.528Z,20.00
2018-02-06T06:48:53.444Z,20.23
2018-02-06T06:51:22.832Z,20.33
2018-02-06T06:53:48.736Z,18.30
2018-02-06T06:56:16.568Z,18.70
2018-02-06T06:58:42.501Z,21.17
2018-02-06T07:01:12.285Z,19.87
2018-02-06T07:03:38.216Z,21.35
2018-02-06T07:06:05.825Z,18.43
2018-02-06T07:08:31.760Z,20.33
2018-02-06T07:10:57.675Z,20.00
2018-02-06T07:13:23.567Z,20.40
2018-02-06T07:15:49.496Z,20.30
2018-02-06T07:18:17.151Z,19.43
2018-02-06T07:23:12.146Z,20.17
2018-02-06T07:25:38.069Z,19.23
2018-02-06T07:28:07.335Z,17.70
2018-02-06T07:30:33.317Z,18.05
2018-02-06T07:33:02.260Z,19.77
2018-02-06T07:35:28.175Z,20.10
2018-02-06T07:37:57.540Z,20.33
2018-02-06T07:40:23.484Z,19.77
2018-02-06T07:42:50.933Z,18.98
2018-02-06T07:45:16.965Z,19.17
2018-02-06T07:47:43.014Z,19.27
2018-02-06T07:50:09.076Z,19.12
2018-02-06T07:52:35.137Z,17.98
2018-02-06T07:55:02.449Z,17.08
2018-02-06T07:57:28.379Z,19.55
2018-02-06T07:59:57.169Z,17.40
2018-02-06T08:02:23.095Z,19.02
2018-02-06T08:04:52.473Z,19.40
2018-02-06T08:07:18.405Z,16.75
2018-02-06T08:09:47.524Z,19.97
2018-02-06T08:12:13.436Z,18.98
2018-02-06T08:14:42.534Z,19.33
2018-02-06T08:17:08.550Z,20.00
2018-02-06T08:19:37.741Z,18.83
2018-02-06T08:22:03.652Z,19.40
2018-02-06T08:24:29.692Z,18.33
2018-02-06T08:26:55.621Z,18.80
2018-02-06T08:29:21.532Z,18.83
2018-02-06T08:31:48.033Z,18.60
2018-02-06T08:34:13.943Z,18.45
2018-02-06T08:36:43.106Z,19.17
2018-02-06T08:39:09.029Z,20.10
2018-02-06T08:41:38.386Z,19.60
2018-02-06T08:44:04.316Z,19.90
2018-02-06T08:46:33.700Z,19.80
2018-02-06T08:48:59.638Z,19.33
2018-02-06T08:51:26.620Z,18.63
2018-02-06T08:53:52.533Z,19.17
2018-02-06T08:56:21.461Z,20.10
2018-02-06T08:58:47.384Z,19.90
2018-02-06T09:01:13.355Z,21.07
2018-02-06T09:03:39.267Z,19.20
2018-02-06T09:06:05.176Z,20.80
2018-02-06T09:08:33.162Z,20.47
2018-02-06T09:10:59.364Z,20.75
2018-02-06T09:13:29.045Z,21.87
2018-02-06T09:15:54.970Z,22.98
2018-02-06T09:18:25.917Z,21.23
2018-02-06T09:20:52.182Z,20.05
2018-02-06T09:23:18.098Z,21.97
2018-02-06T09:25:44.024Z,19.57
2018-02-06T09:28:13.123Z,20.03
2018-02-06T09:30:39.055Z,22.70
2018-02-06T09:33:09.485Z,20.80
2018-02-06T09:35:35.432Z,21.20
2018-02-06T09:38:01.331Z,22.13
2018-02-06T09:40:27.246Z,20.43
2018-02-06T09:42:53.189Z,22.60
2018-02-06T09:45:19.132Z,19.83
2018-02-06T09:47:45.063Z,22.07
2018-02-06T09:50:14.187Z,20.47
2018-02-06T09:52:40.161Z,21.98
2018-02-06T09:55:09.443Z,22.10
2018-02-06T09:57:35.357Z,20.37
2018-02-06T10:00:02.576Z,22.63
2018-02-06T10:02:28.492Z,21.10
2018-02-06T10:04:58.073Z,19.93
2018-02-06T10:07:24.025Z,22.90
2018-02-06T10:09:53.471Z,22.40
2018-02-06T10:12:19.416Z,22.25
2018-02-06T10:14:45.354Z,22.27
2018-02-06T10:17:11.322Z,24.47
2018-02-06T10:19:37.224Z,24.35
2018-02-06T10:22:03.745Z,22.33
2018-02-06T10:24:29.693Z,22.60
2018-02-06T10:26:59.767Z,22.83
2018-02-06T10:29:25.733Z,24.30
2018-02-06T10:31:54.788Z,23.52
2018-02-06T10:34:20.712Z,23.15
2018-02-06T10:36:48.151Z,22.90
2018-02-06T10:39:14.076Z,23.10
2018-02-06T10:41:43.311Z,24.27
2018-02-06T10:44:09.235Z,21.92
2018-02-06T10:46:38.468Z,25.10
2018-02-06T10:49:04.405Z,21.10
2018-02-06T10:51:30.308Z,22.30
2018-02-06T10:53:56.239Z,23.27
2018-02-06T10:56:22.171Z,22.90
2018-02-06T10:58:49.101Z,22.80
2018-02-06T11:01:14.986Z,23.27
2018-02-06T11:03:43.851Z,23.13
2018-02-06T11:06:09.741Z,21.17
2018-02-06T11:08:39.147Z,24.13
2018-02-06T11:11:05.076Z,23.60
2018-02-06T11:13:34.829Z,24.47
2018-02-06T11:16:00.846Z,24.02
2018-02-06T11:18:27.863Z,21.15
2018-02-06T11:20:53.804Z,25.00
2018-02-06T11:23:22.938Z,23.40
2018-02-06T11:25:48.868Z,24.77
2018-02-06T11:28:14.767Z,24.00
2018-02-06T11:30:40.730Z,25.20
2018-02-06T11:33:07.617Z,24.60
2018-02-06T11:35:34.546Z,24.08
2018-02-06T11:38:00.464Z,21.00
2018-02-06T11:40:29.808Z,22.80
2018-02-06T11:42:55.730Z,24.87
2018-02-06T11:45:23.540Z,22.77
2018-02-06T11:47:49.801Z,22.80
2018-02-06T11:50:18.521Z,21.85
2018-02-06T11:52:44.456Z,24.33
2018-02-06T11:55:13.354Z,24.23
2018-02-06T11:57:39.295Z,24.67
2018-02-06T12:00:08.100Z,24.47
2018-02-06T12:02:34.127Z,22.80
2018-02-06T12:05:00.037Z,21.70
2018-02-06T12:07:25.955Z,21.30
2018-02-06T12:09:51.886Z,23.23
2018-02-06T12:12:19.737Z,22.43
2018-02-06T12:14:45.667Z,22.42
2018-02-06T12:17:14.768Z,22.50
2018-02-06T12:19:40.690Z,23.00
2018-02-06T12:22:10.123Z,22.20
2018-02-06T12:24:36.041Z,23.23
2018-02-06T12:27:05.461Z,23.13
2018-02-06T12:29:31.419Z,21.92
2018-02-06T12:31:59.047Z,23.83
2018-02-06T12:34:24.958Z,22.52
2018-02-06T12:36:54.085Z,23.70
2018-02-06T12:39:20.001Z,23.50
2018-02-06T12:41:45.911Z,24.60
2018-02-06T12:44:11.823Z,21.63
2018-02-06T12:46:37.771Z,21.73
2018-02-06T12:49:05.640Z,23.77
2018-02-06T12:51:31.569Z,23.12
2018-02-06T12:54:00.784Z,25.33
2018-02-06T12:56:26.683Z,24.80
2018-02-06T12:58:55.985Z,23.90
2018-02-06T13:01:21.881Z,25.60
2018-02-06T13:03:49.002Z,23.70
2018-02-06T13:06:14.923Z,25.37
2018-02-06T13:08:43.679Z,23.10
2018-02-06T13:11:09.575Z,24.63
2018-02-06T13:13:39.143Z,25.43
2018-02-06T13:16:05.091Z,24.83
2018-02-06T13:18:31.061Z,25.57
2018-02-06T13:20:57.002Z,25.33
2018-02-06T13:23:23.113Z,25.33
2018-02-06T13:25:51.063Z,24.58
2018-02-06T13:28:16.990Z,26.20
2018-02-06T13:30:46.062Z,24.97
2018-02-06T13:33:11.993Z,23.80
2018-02-06T13:35:39.544Z,85.00
2018-02-06T13:38:05.487Z,36.75
2018-02-06T13:40:34.915Z,26.67
2018-02-06T13:43:00.831Z,26.48
2018-02-06T13:45:30.469Z,24.93
2018-02-06T13:47:56.731Z,26.98
2018-02-06T13:50:23.730Z,27.17
2018-02-06T13:52:49.682Z,24.23
2018-02-06T13:55:15.591Z,25.93
2018-02-06T13:57:46.483Z,25.40
2018-02-06T14:00:12.447Z,24.60
2018-02-06T14:02:38.404Z,26.53
2018-02-06T14:05:04.436Z,24.70
2018-02-06T14:07:30.379Z,28.10
2018-02-06T14:09:56.324Z,26.20
2018-02-06T14:12:25.842Z,24.87
2018-02-06T14:14:52.169Z,25.33
2018-02-06T14:17:19.908Z,26.75
2018-02-06T14:19:45.844Z,26.27
2018-02-06T14:22:15.404Z,26.10
2018-02-06T14:24:41.336Z,25.90
2018-02-06T14:27:10.362Z,26.53
2018-02-06T14:29:36.297Z,26.75
2018-02-06T14:32:02.243Z,26.67
2018-02-06T14:34:28.249Z,26.20
2018-02-06T14:36:54.196Z,27.40
2018-02-06T14:39:21.407Z,25.10
2018-02-06T14:41:47.363Z,25.50
2018-02-06T14:44:16.768Z,24.83
2018-02-06T14:46:42.706Z,26.85
2018-02-06T14:49:10.303Z,24.60
2018-02-06T14:51:36.236Z,25.23
2018-02-06T14:54:06.220Z,24.63
2018-02-06T14:56:32.176Z,24.35
2018-02-06T14:58:59.997Z,26.07
2018-02-06T15:01:25.944Z,24.48
2018-02-06T15:03:56.236Z,24.30
2018-02-06T15:06:22.189Z,25.00
2018-02-06T15:08:49.096Z,23.20
2018-02-06T15:11:15.011Z,23.80
2018-02-06T15:13:40.951Z,24.60
2018-02-06T15:16:07.563Z,24.83
2018-02-06T15:18:33.489Z,24.37
2018-02-06T15:21:02.540Z,24.90
2018-02-06T15:23:28.490Z,23.65
2018-02-06T15:25:55.832Z,23.50
2018-02-06T15:28:21.801Z,22.60
2018-02-06T15:30:50.848Z,23.07
2018-02-06T15:33:16.780Z,22.25
2018-02-06T15:35:45.928Z,23.13
2018-02-06T15:38:11.855Z,24.90
2018-02-06T15:40:39.739Z,21.70
2018-02-06T15:43:05.711Z,24.50
2018-02-06T15:45:31.631Z,21.60
2018-02-06T15:47:58.256Z,23.87
2018-02-06T15:50:24.228Z,23.70
2018-02-06T15:52:52.372Z,22.67
2018-02-06T15:55:18.330Z,23.02
2018-02-06T15:57:45.960Z,21.13
2018-02-06T16:00:11.907Z,21.25
2018-02-06T16:02:41.481Z,21.60
2018-02-06T16:05:07.392Z,21.37
2018-02-06T16:07:37.135Z,20.50
2018-02-06T16:10:03.128Z,23.02
2018-02-06T16:12:30.531Z,23.38
2018-02-06T16:14:56.455Z,21.50
2018-02-06T16:17:25.794Z,21.90
2018-02-06T16:19:51.701Z,22.23
2018-02-06T16:22:17.635Z,21.67
2018-02-06T16:24:43.572Z,22.23
2018-02-06T16:27:09.583Z,20.80
2018-02-06T16:29:36.926Z,22.87
2018-02-06T16:32:02.816Z,21.67
2018-02-06T16:34:32.092Z,21.90
2018-02-06T16:36:58.031Z,22.40
2018-02-06T16:39:27.190Z,23.03
2018-02-06T16:41:53.145Z,22.62
2018-02-06T16:44:22.257Z,22.10
2018-02-06T16:46:48.177Z,21.80
2018-02-06T16:49:17.238Z,21.77
2018-02-06T16:51:43.142Z,21.83
2018-02-06T16:54:10.420Z,17.77
2018-02-06T16:56:36.332Z,20.80
2018-02-06T16:59:02.272Z,19.97
2018-02-06T17:01:28.997Z,21.63
2018-02-06T17:03:54.894Z,20.95
2018-02-06T17:06:22.104Z,22.23
2018-02-06T17:08:48.060Z,22.05
2018-02-06T17:11:17.416Z,22.23
2018-02-06T17:13:43.313Z,20.20
2018-02-06T17:16:12.481Z,19.10
2018-02-06T17:18:38.417Z,20.62
2018-02-06T17:21:06.358Z,22.77
2018-02-06T17:23:32.290Z,20.23
2018-02-06T17:26:01.163Z,22.37
2018-02-06T17:28:27.097Z,23.12
2018-02-06T17:30:56.545Z,22.70
2018-02-06T17:33:22.455Z,22.13
2018-02-06T17:35:48.384Z,22.60
2018-02-06T17:38:14.304Z,20.80
2018-02-06T17:40:40.240Z,21.73
2018-02-06T17:43:07.663Z,20.90
2018-02-06T17:45:33.579Z,20.45
2018-02-06T17:48:03.116Z,22.10
2018-02-06T17:50:29.080Z,23.75
2018-02-06T17:52:58.099Z,23.40
2018-02-06T17:55:24.012Z,23.60
2018-02-06T17:57:53.172Z,25.20
2018-02-06T18:00:19.135Z,24.42
2018-02-06T18:02:46.648Z,24.00
2018-02-06T18:05:12.649Z,22.37
2018-02-06T18:07:41.830Z,20.95
2018-02-06T18:10:07.818Z,20.20
2018-02-06T18:12:33.741Z,23.12
2018-02-06T18:14:59.648Z,21.70
2018-02-06T18:17:25.609Z,24.33
2018-02-06T18:19:54.632Z,25.27
2018-02-06T18:22:20.553Z,23.77
2018-02-06T18:24:48.001Z,21.03
2018-02-06T18:27:13.908Z,21.37
2018-02-06T18:29:43.162Z,21.33
2018-02-06T18:32:09.108Z,21.25
2018-02-06T18:34:38.797Z,21.37
2018-02-06T18:37:04.768Z,20.62
2018-02-06T18:39:31.950Z,21.95
2018-02-06T18:41:57.874Z,23.27
2018-02-06T18:44:26.723Z,21.90
2018-02-06T18:46:52.659Z,22.27
2018-02-06T18:49:18.587Z,21.07
2018-02-06T18:51:44.535Z,21.60
2018-02-06T18:54:10.467Z,22.03
2018-02-06T18:56:38.024Z,22.30
2018-02-06T18:59:03.926Z,20.98
2018-02-06T19:01:32.806Z,23.53
2018-02-06T19:03:58.743Z,22.83
2018-02-06T19:06:27.700Z,23.87
2018-02-06T19:08:53.624Z,22.45
2018-02-06T19:11:22.773Z,21.23
2018-02-06T19:13:48.722Z,22.92
2018-02-06T19:16:17.935Z,22.73
2018-02-06T19:18:43.860Z,23.27
2018-02-06T19:21:12.883Z,23.33
2018-02-06T19:23:38.851Z,23.55
2018-02-06T19:26:04.777Z,22.45
2018-02-06T19:28:30.746Z,22.27
2018-02-06T19:30:56.659Z,21.17
2018-02-06T19:33:24.094Z,22.43
2018-02-06T19:35:50.020Z,22.25
2018-02-06T19:38:19.316Z,22.40
2018-02-06T19:40:45.248Z,23.90
2018-02-06T19:43:14.581Z,22.70
2018-02-06T19:45:55.451Z,24.60
2018-02-06T19:48:22.360Z,23.42
2018-02-06T19:50:48.287Z,24.95
2018-02-06T19:53:14.229Z,23.40
2018-02-06T19:55:40.176Z,20.73
2018-02-06T19:58:06.097Z,21.50
2018-02-06T20:00:32.056Z,19.40
2018-02-06T20:02:57.968Z,23.17
2018-02-06T20:05:23.922Z,23.03
2018-02-06T20:07:49.860Z,21.10
2018-02-06T20:10:15.800Z,22.27
2018-02-06T20:12:41.749Z,21.37
2018-02-06T20:15:07.650Z,20.67
2018-02-06T20:17:33.592Z,22.53
2018-02-06T20:19:59.507Z,20.10
2018-02-06T20:22:25.439Z,20.67
2018-02-06T20:24:53.140Z,20.27
2018-02-06T20:27:19.056Z,21.30
2018-02-06T20:29:48.143Z,19.00
2018-02-06T20:32:14.079Z,20.45
2018-02-06T20:34:43.919Z,21.70
2018-02-06T20:37:09.906Z,41.80
2018-02-06T20:39:35.861Z,27.85
2018-02-06T20:42:01.776Z,21.23
2018-02-06T20:44:27.703Z,19.67
2018-02-06T20:46:54.366Z,20.60
2018-02-06T20:49:20.303Z,19.73
2018-02-06T20:51:49.730Z,19.47
2018-02-06T20:54:15.652Z,22.20
2018-02-06T20:56:45.048Z,20.57
2018-02-06T20:59:10.990Z,19.37
2018-02-06T21:01:38.357Z,20.43
2018-02-06T21:04:04.278Z,20.15
2018-02-06T21:06:33.687Z,22.90
2018-02-06T21:08:59.612Z,25.92
2018-02-06T21:11:29.028Z,21.70
2018-02-06T21:13:54.940Z,25.70
2018-02-06T21:16:20.862Z,24.63
2018-02-06T21:18:47.659Z,25.30
2018-02-06T21:21:13.590Z,23.85
2018-02-06T21:23:39.536Z,22.13
2018-02-06T21:26:05.993Z,22.40
2018-02-06T21:28:35.983Z,23.50
2018-02-06T21:31:01.931Z,23.70
2018-02-06T21:33:28.983Z,22.80
2018-02-06T21:35:54.929Z,23.98
2018-02-06T21:38:23.985Z,23.50
2018-02-06T21:40:49.907Z,22.05
2018-02-06T21:43:19.174Z,21.53
2018-02-06T21:45:45.078Z,25.35
2018-02-06T21:48:14.514Z,22.33
2018-02-06T21:50:40.463Z,22.17
2018-02-06T21:53:06.375Z,20.53
2018-02-06T21:55:32.297Z,23.60
2018-02-06T21:57:58.239Z,21.60
2018-02-06T22:00:25.156Z,23.87
2018-02-06T22:02:51.094Z,22.98
2018-02-06T22:05:20.221Z,23.07
2018-02-06T22:07:46.195Z,23.65
2018-02-06T22:10:15.976Z,22.58
2018-02-06T22:12:41.921Z,23.30
2018-02-06T22:15:09.140Z,24.70
2018-02-06T22:17:35.099Z,24.75
2018-02-06T22:20:04.285Z,22.93
2018-02-06T22:22:30.261Z,23.20
2018-02-06T22:25:00.001Z,22.50
2018-02-06T22:27:25.920Z,23.38
2018-02-06T22:29:51.889Z,22.37
2018-02-06T22:32:17.804Z,24.50
2018-02-06T22:34:43.764Z,23.80
2018-02-06T22:37:11.071Z,22.40
2018-02-06T22:39:36.985Z,23.35
2018-02-06T22:42:06.328Z,21.60
2018-02-06T22:44:32.269Z,22.42
2018-02-06T22:47:01.497Z,21.93
2018-02-06T22:49:27.419Z,22.60
2018-02-06T22:51:54.903Z,22.43
2018-02-06T22:54:20.828Z,21.58
2018-02-06T22:56:48.796Z,22.07
2018-02-06T22:59:14.755Z,22.15
2018-02-06T23:01:44.275Z,22.80
2018-02-06T23:04:10.230Z,23.08
2018-02-06T23:06:36.130Z,21.70
2018-02-06T23:09:02.109Z,20.40
2018-02-06T23:11:28.019Z,21.75
2018-02-06T23:13:56.935Z,21.77
2018-02-06T23:16:22.875Z,20.65
2018-02-06T23:18:50.528Z,22.60
2018-02-06T23:21:16.501Z,22.02
2018-02-06T23:23:45.448Z,20.77
2018-02-06T23:26:11.377Z,21.83
2018-02-06T23:28:40.422Z,21.37
2018-02-06T23:31:06.303Z,22.45
2018-02-06T23:33:35.314Z,24.43
2018-02-06T23:36:01.258Z,22.73
2018-02-06T23:38:30.711Z,23.27
2018-02-06T23:40:56.678Z,20.00
2018-02-06T23:43:22.610Z,22.40
2018-02-06T23:45:48.564Z,22.90
2018-02-06T23:48:14.472Z,21.47
2018-02-06T23:50:40.422Z,23.83
2018-02-06T23:53:06.352Z,20.50
2018-02-06T23:55:35.668Z,22.00
2018-02-06T23:58:01.638Z,20.23
